EST,Max TemperatureF,Mean TemperatureF,Min TemperatureF,Max Dew PointF,MeanDew PointF,Min DewpointF,Max Humidity, Mean Humidity, Min Humidity, Max Sea Level PressureIn, Mean Sea Level PressureIn, Min Sea Level PressureIn, Max VisibilityMiles, Mean VisibilityMiles, Min VisibilityMiles, Max Wind SpeedMPH, Mean Wind SpeedMPH, Max Gust SpeedMPH,PrecipitationIn, CloudCover, Events, WindDirDegrees
2012-12-1,69,64,59,63,61,57,96,89,78,30.33,30.29,30.24,10,9,2,15,6,,0.02,6,Rain,354
2012-12-2,73,66,59,64,62,57,97,89,68,30.34,30.29,30.27,10,9,5,10,4,,0.01,4,Rain,25
2012-12-3,69,66,61,64,63,59,100,94,78,30.35,30.30,30.26,10,7,2,15,7,,0.23,7,Rain,61
2012-12-4,73,65,57,63,58,55,97,84,55,30.34,30.28,30.25,10,10,6,8,2,,0.00,0,,13
2012-12-5,69,62,55,63,61,55,100,90,75,30.23,30.15,30.10,10,9,5,13,3,,0.02,7,Rain,27
2012-12-6,69,66,64,64,63,61,97,91,78,30.11,30.06,30.02,10,8,2,15,8,20,0.23,7,Rain,13
2012-12-7,64,62,60,64,60,59,100,96,93,30.06,30.02,29.99,10,3,0,15,10,18,0.00,8,Fog-Rain,10
2012-12-8,64,62,60,63,61,59,100,96,93,30.11,30.06,30.03,10,2,0,7,3,,0.00,8,Fog,37
2012-12-9,73,66,60,67,63,59,100,94,79,30.12,30.06,30.02,10,6,0,13,2,,0.00,7,Fog,12
2012-12-10,81,70,59,72,65,59,100,92,61,30.03,29.92,29.83,10,5,0,22,4,31,3.07,7,Fog-Rain-Thunderstorm,240
2012-12-11,78,72,66,68,67,66,100,89,69,30.06,29.96,29.87,10,8,2,12,5,28,0.00,6,Rain,195
2012-12-12,68,64,60,66,62,57,100,95,88,30.13,30.08,30.02,10,6,2,16,7,,1.25,8,Rain-Thunderstorm,359
2012-12-13,64,58,53,63,55,51,100,94,89,30.27,30.20,30.09,10,7,2,20,13,25,0.00,8,Rain,351
2012-12-14,60,56,51,56,54,51,100,92,80,30.30,30.23,30.16,10,8,5,18,11,24,0.00,7,,342
2012-12-15,66,60,55,64,60,55,100,93,87,30.20,30.15,30.10,10,6,0,14,9,18,0.00,7,Fog,13
2012-12-16,75,65,55,66,60,55,100,92,73,30.10,30.05,29.97,10,5,0,10,2,,0.00,5,Fog-Rain,153
2012-12-17,79,69,59,65,62,58,97,83,56,29.98,29.91,29.82,10,10,5,24,6,34,0.23,4,Rain,227
2012-12-18,73,63,50,67,59,43,100,79,35,30.05,29.93,29.86,10,10,10,16,7,24,0.00,3,,256
2012-12-19,66,55,44,53,48,42,93,76,48,30.16,30.11,30.06,10,10,8,8,2,,0.00,0,,58
2012-12-20,78,64,51,68,60,49,94,79,54,30.10,29.97,29.85,10,10,6,17,6,26,0.30,3,Rain,194
2012-12-21,69,57,45,64,34,18,88,51,23,30.19,30.04,29.89,10,10,10,18,13,31,0.00,2,,283
2012-12-22,59,49,37,34,23,18,79,43,24,30.28,30.23,30.19,10,10,10,15,9,23,0.00,0,,290
2012-12-23,61,48,36,43,35,24,86,59,28,30.30,30.22,30.17,10,10,9,6,4,,0.00,0,,235
2012-12-24,69,58,48,53,47,39,83,64,47,30.17,30.07,29.99,10,10,10,14,5,24,0.00,2,,203
2012-12-25,73,65,57,61,57,49,84,76,62,30.04,29.98,29.91,10,10,10,12,7,,0.00,1,,183
2012-12-26,72,58,44,66,56,34,94,74,49,29.99,29.81,29.71,10,9,2,20,14,30,0.29,3,Rain-Thunderstorm,232
2012-12-27,59,48,37,42,36,33,89,71,44,30.11,30.06,29.99,10,10,10,13,8,21,0.00,0,,280
2012-12-28,64,52,41,60,48,38,89,79,69,30.15,30.05,29.93,10,10,10,13,4,,0.00,3,,328
2012-12-29,73,58,44,70,60,34,97,83,58,30.19,29.91,29.81,10,8,2,18,12,26,0.38,6,Rain-Thunderstorm,239
2012-12-30,55,46,37,48,36,29,77,68,61,30.41,30.36,30.20,10,10,10,16,11,23,0.00,4,,357
2012-12-31,64,55,46,55,50,44,93,84,68,30.42,30.32,30.25,10,10,9,10,6,,0.00,3,,350